createdAt,value
2017-05-17T00:01:36.558Z,12.40
2017-05-17T00:04:05.509Z,12.40
2017-05-17T00:06:34.756Z,12.40
2017-05-17T00:09:03.712Z,12.30
2017-05-17T00:11:32.684Z,12.30
2017-05-17T00:14:01.684Z,12.30
2017-05-17T00:16:30.670Z,12.30
2017-05-17T00:19:00.010Z,12.30
2017-05-17T00:21:28.980Z,12.30
2017-05-17T00:23:57.956Z,12.20
2017-05-17T00:26:26.927Z,12.20
2017-05-17T00:28:56.629Z,12.20
2017-05-17T00:31:26.683Z,12.10
2017-05-17T00:33:55.637Z,12.10
2017-05-17T00:36:37.487Z,12.10
2017-05-17T00:39:18.300Z,12.10
2017-05-17T00:42:00.154Z,12.10
2017-05-17T00:44:40.867Z,12.00
2017-05-17T00:47:21.993Z,12.00
2017-05-17T00:50:02.692Z,11.90
2017-05-17T00:52:32.706Z,11.90
2017-05-17T00:55:02.411Z,11.90
2017-05-17T00:57:32.454Z,11.90
2017-05-17T01:00:01.417Z,11.90
2017-05-17T01:02:30.383Z,11.90
2017-05-17T01:04:59.363Z,11.80
2017-05-17T01:07:28.305Z,11.80
2017-05-17T01:09:58.335Z,11.70
2017-05-17T01:12:27.295Z,11.70
2017-05-17T01:14:56.309Z,11.70
2017-05-17T01:17:25.263Z,11.70
2017-05-17T01:19:54.226Z,11.60
2017-05-17T01:22:23.463Z,11.60
2017-05-17T01:24:52.461Z,11.50
2017-05-17T01:27:22.169Z,11.50
2017-05-17T01:29:51.971Z,11.50
2017-05-17T01:32:21.802Z,11.50
2017-05-17T01:34:51.803Z,11.40
2017-05-17T01:37:21.508Z,11.40
2017-05-17T01:39:51.488Z,11.40
2017-05-17T01:42:20.451Z,11.40
2017-05-17T01:44:49.412Z,11.40
2017-05-17T01:47:18.393Z,11.40
2017-05-17T01:49:48.114Z,11.30
2017-05-17T01:52:18.074Z,11.30
2017-05-17T01:54:47.039Z,11.30
2017-05-17T01:57:16.030Z,11.30
2017-05-17T01:59:45.103Z,11.30
2017-05-17T02:02:14.799Z,11.20
2017-05-17T02:04:44.785Z,11.20
2017-05-17T02:07:13.752Z,11.20
2017-05-17T02:09:42.710Z,11.20
2017-05-17T02:12:12.424Z,11.20
2017-05-17T02:14:41.419Z,11.20
2017-05-17T02:17:10.654Z,11.20
2017-05-17T02:19:39.823Z,11.10
2017-05-17T02:22:08.801Z,11.10
2017-05-17T02:24:38.105Z,11.00
2017-05-17T02:27:07.064Z,11.00
2017-05-17T02:29:37.150Z,11.00
2017-05-17T02:32:06.038Z,11.00
2017-05-17T02:34:35.774Z,11.00
2017-05-17T02:37:04.751Z,10.90
2017-05-17T02:39:33.716Z,10.90
2017-05-17T02:42:03.051Z,10.90
2017-05-17T02:44:32.024Z,10.90
2017-05-17T02:47:00.905Z,10.90
2017-05-17T02:49:30.875Z,10.80
2017-05-17T02:51:59.869Z,10.80
2017-05-17T02:54:28.834Z,10.80
2017-05-17T02:56:57.859Z,10.70
2017-05-17T02:59:26.821Z,10.70
2017-05-17T03:01:56.865Z,10.70
2017-05-17T03:04:25.825Z,10.70
2017-05-17T03:06:54.753Z,10.70
2017-05-17T03:09:23.871Z,10.70
2017-05-17T03:11:52.817Z,10.70
2017-05-17T03:14:22.031Z,10.70
2017-05-17T03:16:51.016Z,10.70
2017-05-17T03:19:19.979Z,10.60
2017-05-17T03:21:49.698Z,10.60
2017-05-17T03:24:19.419Z,10.60
2017-05-17T03:26:48.747Z,10.60
2017-05-17T03:29:17.699Z,10.60
2017-05-17T03:31:46.688Z,10.60
2017-05-17T03:34:16.429Z,10.60
2017-05-17T03:36:45.392Z,10.60
2017-05-17T03:39:14.725Z,10.60
2017-05-17T03:41:43.702Z,10.60
2017-05-17T03:44:12.661Z,10.60
2017-05-17T03:46:42.408Z,10.60
2017-05-17T03:49:11.374Z,10.60
2017-05-17T03:51:40.628Z,10.50
2017-05-17T03:54:10.377Z,10.50
2017-05-17T03:56:39.340Z,10.50
2017-05-17T03:59:08.331Z,10.50
2017-05-17T04:01:37.285Z,10.50
2017-05-17T04:04:06.611Z,10.60
2017-05-17T04:06:35.563Z,10.60
2017-05-17T04:09:04.501Z,10.60
2017-05-17T04:11:33.519Z,10.60
2017-05-17T04:14:02.496Z,10.60
2017-05-17T04:16:32.470Z,10.70
2017-05-17T04:19:01.437Z,10.70
2017-05-17T04:21:30.407Z,10.80
2017-05-17T04:23:59.387Z,10.80
2017-05-17T04:26:29.079Z,10.80
2017-05-17T04:28:58.288Z,10.90
2017-05-17T04:31:27.994Z,10.90
2017-05-17T04:33:57.734Z,11.00
2017-05-17T04:36:26.714Z,11.00
2017-05-17T04:38:55.672Z,11.10
2017-05-17T04:41:24.952Z,11.20
2017-05-17T04:43:53.933Z,11.20
2017-05-17T04:46:22.904Z,11.30
2017-05-17T04:48:51.958Z,11.30
2017-05-17T04:51:21.676Z,11.40
2017-05-17T04:53:50.676Z,11.50
2017-05-17T04:56:19.646Z,11.60
2017-05-17T04:58:49.649Z,11.60
2017-05-17T05:01:18.621Z,11.70
2017-05-17T05:03:47.504Z,11.80
2017-05-17T05:06:16.511Z,11.80
2017-05-17T05:08:45.509Z,11.90
2017-05-17T05:11:14.699Z,11.90
2017-05-17T05:13:44.437Z,12.00
2017-05-17T05:16:14.419Z,12.00
2017-05-17T05:18:43.374Z,12.10
2017-05-17T05:21:12.328Z,12.20
2017-05-17T05:23:42.032Z,12.20
2017-05-17T05:26:11.734Z,12.30
2017-05-17T05:28:41.672Z,12.40
2017-05-17T05:31:10.683Z,12.50
2017-05-17T05:33:39.680Z,12.70
2017-05-17T05:36:08.656Z,12.80
2017-05-17T05:38:37.660Z,12.90
2017-05-17T05:41:06.975Z,13.00
2017-05-17T05:43:35.940Z,13.10
2017-05-17T05:46:04.907Z,13.10
2017-05-17T05:48:34.608Z,13.20
2017-05-17T05:51:04.323Z,13.30
2017-05-17T05:53:33.555Z,13.40
2017-05-17T05:56:02.531Z,13.60
2017-05-17T05:58:31.505Z,13.70
2017-05-17T06:01:00.512Z,13.90
2017-05-17T06:03:29.479Z,14.00
2017-05-17T06:05:58.837Z,14.10
2017-05-17T06:08:27.812Z,14.30
2017-05-17T06:10:56.792Z,14.40
2017-05-17T06:13:25.841Z,14.50
2017-05-17T06:15:55.561Z,14.60
2017-05-17T06:18:25.543Z,14.70
2017-05-17T06:20:54.551Z,14.90
2017-05-17T06:23:24.266Z,14.90
2017-05-17T06:25:53.980Z,15.10
2017-05-17T06:28:23.697Z,15.10
2017-05-17T06:30:52.888Z,15.20
2017-05-17T06:33:22.598Z,15.30
2017-05-17T06:35:52.577Z,15.30
2017-05-17T06:38:21.511Z,15.40
2017-05-17T06:40:50.398Z,15.50
2017-05-17T06:43:20.342Z,15.60
2017-05-17T06:45:49.381Z,15.70
2017-05-17T06:48:19.362Z,15.70
2017-05-17T06:50:48.333Z,15.80
2017-05-17T06:53:17.308Z,15.90
2017-05-17T06:55:54.707Z,15.90
2017-05-17T06:58:23.760Z,16.10
2017-05-17T07:00:52.785Z,16.10
2017-05-17T07:03:21.736Z,16.20
2017-05-17T07:05:51.057Z,16.30
2017-05-17T07:08:19.996Z,16.40
2017-05-17T07:10:48.973Z,16.40
2017-05-17T07:13:17.952Z,16.50
2017-05-17T07:15:46.969Z,16.60
2017-05-17T07:18:16.180Z,16.70
2017-05-17T07:20:45.125Z,16.80
2017-05-17T07:23:14.098Z,16.90
2017-05-17T07:25:43.074Z,17.10
2017-05-17T07:28:12.777Z,17.10
2017-05-17T07:30:42.854Z,17.20
2017-05-17T07:33:11.810Z,17.30
2017-05-17T07:35:40.775Z,17.40
2017-05-17T07:38:10.493Z,17.50
2017-05-17T07:40:40.176Z,17.60
2017-05-17T07:43:09.458Z,17.70
2017-05-17T07:45:38.466Z,17.80
2017-05-17T07:48:07.415Z,17.90
2017-05-17T07:50:36.445Z,18.00
2017-05-17T07:53:05.430Z,18.00
2017-05-17T07:55:34.657Z,18.10
2017-05-17T07:58:04.394Z,18.10
2017-05-17T08:00:33.356Z,18.20
2017-05-17T08:03:03.066Z,18.20
2017-05-17T08:05:32.770Z,18.30
2017-05-17T08:08:02.528Z,18.40
2017-05-17T08:10:31.489Z,18.50
2017-05-17T08:13:00.845Z,18.50
2017-05-17T08:15:29.814Z,18.50
2017-05-17T08:17:58.791Z,18.60
2017-05-17T08:20:27.772Z,18.70
2017-05-17T08:22:56.762Z,18.80
2017-05-17T08:25:26.023Z,19.00
2017-05-17T08:27:54.979Z,19.10
2017-05-17T08:30:23.996Z,19.20
2017-05-17T08:32:52.986Z,19.40
2017-05-17T08:35:21.972Z,19.50
2017-05-17T08:37:51.260Z,19.60
2017-05-17T08:40:20.214Z,19.70
2017-05-17T08:42:49.196Z,19.80
2017-05-17T08:45:18.177Z,19.90
2017-05-17T08:47:47.149Z,20.10
2017-05-17T08:50:16.425Z,20.20
2017-05-17T08:52:45.387Z,20.30
2017-05-17T08:57:36.566Z,20.40
2017-05-17T09:00:05.527Z,20.50
2017-05-17T09:02:34.495Z,20.50
2017-05-17T09:05:03.464Z,20.70
2017-05-17T09:07:32.792Z,20.80
2017-05-17T09:10:01.754Z,20.90
2017-05-17T09:12:34.798Z,20.90
2017-05-17T09:15:03.780Z,21.00
2017-05-17T09:17:32.738Z,21.10
2017-05-17T09:20:01.989Z,21.10
2017-05-17T09:22:31.693Z,21.30
2017-05-17T09:25:00.636Z,21.40
2017-05-17T09:27:29.638Z,21.50
2017-05-17T09:29:58.604Z,21.50
2017-05-17T09:32:27.582Z,21.60
2017-05-17T09:34:56.557Z,21.80
2017-05-17T09:37:26.274Z,22.00
2017-05-17T09:39:55.957Z,22.10
2017-05-17T09:42:24.959Z,22.30
2017-05-17T09:44:54.693Z,22.50
2017-05-17T09:47:23.954Z,22.60
2017-05-17T09:49:52.944Z,22.70
2017-05-17T09:52:21.948Z,22.90
2017-05-17T09:54:51.667Z,22.90
2017-05-17T09:57:21.510Z,23.10
2017-05-17T09:59:50.543Z,23.30
2017-05-17T10:02:19.585Z,23.50
2017-05-17T10:04:48.979Z,23.70
2017-05-17T10:07:17.950Z,24.00
2017-05-17T10:09:47.018Z,24.30
2017-05-17T10:12:16.097Z,24.50
2017-05-17T10:14:45.125Z,24.70
2017-05-17T10:17:14.862Z,25.00
2017-05-17T10:19:43.866Z,25.30
2017-05-17T10:22:12.913Z,25.60
2017-05-17T10:24:42.226Z,25.90
2017-05-17T10:27:11.996Z,26.10
2017-05-17T10:29:41.079Z,26.40
2017-05-17T10:32:10.313Z,26.50
2017-05-17T10:34:40.078Z,26.60
2017-05-17T10:37:09.048Z,26.80
2017-05-17T10:39:38.310Z,27.00
2017-05-17T10:42:07.313Z,27.00
2017-05-17T10:44:37.017Z,27.10
2017-05-17T10:47:06.087Z,27.10
2017-05-17T10:49:35.058Z,27.30
2017-05-17T10:52:04.584Z,27.40
2017-05-17T10:54:33.749Z,27.60
2017-05-17T10:57:03.151Z,27.80
2017-05-17T10:59:32.029Z,27.80
2017-05-17T11:02:01.052Z,28.10
2017-05-17T11:04:30.029Z,28.20
2017-05-17T11:06:58.984Z,28.20
2017-05-17T11:09:27.985Z,28.10
2017-05-17T11:11:57.102Z,28.20
2017-05-17T11:14:26.623Z,28.40
2017-05-17T11:16:55.614Z,28.60
2017-05-17T11:19:24.585Z,28.80
2017-05-17T11:21:53.616Z,29.10
2017-05-17T11:24:23.296Z,29.20
2017-05-17T11:26:52.595Z,29.20
2017-05-17T11:29:21.569Z,29.30
2017-05-17T11:31:50.471Z,29.50
2017-05-17T11:34:20.617Z,29.80
2017-05-17T11:36:50.326Z,30.00
2017-05-17T11:39:20.323Z,30.20
2017-05-17T11:41:49.423Z,30.40
2017-05-17T11:44:18.435Z,30.60
2017-05-17T11:46:48.143Z,30.50
2017-05-17T11:49:17.843Z,30.60
2017-05-17T11:51:47.941Z,30.70
2017-05-17T11:54:16.903Z,30.60
2017-05-17T11:56:45.861Z,30.60
2017-05-17T11:59:15.102Z,30.50
2017-05-17T12:01:44.075Z,30.60
2017-05-17T12:04:13.030Z,30.80
2017-05-17T12:06:42.765Z,31.10
2017-05-17T12:09:11.738Z,31.20
2017-05-17T12:11:40.995Z,31.40
2017-05-17T12:14:09.955Z,31.50
2017-05-17T12:16:38.939Z,31.70
2017-05-17T12:19:07.949Z,31.90
2017-05-17T12:21:36.929Z,32.20
2017-05-17T12:24:06.215Z,32.30
2017-05-17T12:26:35.170Z,32.30
2017-05-17T12:29:04.883Z,32.40
2017-05-17T12:31:34.902Z,32.60
2017-05-17T12:34:04.599Z,32.70
2017-05-17T12:36:34.322Z,32.50
2017-05-17T12:39:03.340Z,32.40
2017-05-17T12:41:32.292Z,32.40
2017-05-17T12:44:02.309Z,32.40
2017-05-17T12:46:32.012Z,32.30
2017-05-17T12:49:01.738Z,32.10
2017-05-17T12:51:31.083Z,32.10
2017-05-17T12:54:00.045Z,32.20
2017-05-17T12:56:29.014Z,32.20
2017-05-17T12:58:58.003Z,32.10
2017-05-17T13:01:27.704Z,32.20
2017-05-17T13:03:57.423Z,32.20
2017-05-17T13:06:27.158Z,32.10
2017-05-17T13:08:56.414Z,32.00
2017-05-17T13:11:26.038Z,32.00
2017-05-17T13:13:55.057Z,32.10
2017-05-17T13:16:24.032Z,32.10
2017-05-17T13:18:52.933Z,32.00
2017-05-17T13:21:21.936Z,31.90
2017-05-17T13:23:50.913Z,31.80
2017-05-17T13:26:19.897Z,31.70
2017-05-17T13:28:48.894Z,31.70
2017-05-17T13:31:17.907Z,31.80
2017-05-17T13:33:46.941Z,32.10
2017-05-17T13:36:17.004Z,32.30
2017-05-17T13:38:45.970Z,32.30
2017-05-17T13:41:14.919Z,32.20
2017-05-17T13:43:43.913Z,32.20
2017-05-17T13:46:12.859Z,32.10
2017-05-17T13:48:41.850Z,32.00
2017-05-17T13:51:10.811Z,32.10
2017-05-17T13:53:40.742Z,32.10
2017-05-17T13:56:09.685Z,32.30
2017-05-17T13:58:38.695Z,32.30
2017-05-17T14:01:08.448Z,32.20
2017-05-17T14:03:37.409Z,31.90
2017-05-17T14:06:07.146Z,31.80
2017-05-17T14:08:36.111Z,31.80
2017-05-17T14:11:05.308Z,31.90
2017-05-17T14:13:35.019Z,32.10
2017-05-17T14:16:03.973Z,32.30
2017-05-17T14:18:32.974Z,32.20
2017-05-17T14:21:01.944Z,32.40
2017-05-17T14:23:31.248Z,32.30
2017-05-17T14:26:00.210Z,32.20
2017-05-17T14:28:29.207Z,32.20
2017-05-17T14:30:58.568Z,32.20
2017-05-17T14:33:27.499Z,32.50
2017-05-17T14:35:56.475Z,32.50
2017-05-17T14:38:25.706Z,32.50
2017-05-17T14:40:54.697Z,32.40
2017-05-17T14:43:23.675Z,32.40
2017-05-17T14:45:52.665Z,32.40
2017-05-17T14:48:21.608Z,32.50
2017-05-17T14:50:50.613Z,32.70
2017-05-17T14:53:19.570Z,32.80
2017-05-17T14:55:49.504Z,32.70
2017-05-17T14:58:18.528Z,32.70
2017-05-17T15:00:47.491Z,32.60
2017-05-17T15:03:16.866Z,32.30
2017-05-17T15:05:45.864Z,32.20
2017-05-17T15:11:45.979Z,32.10
2017-05-17T15:17:15.471Z,31.60
2017-05-17T15:19:44.452Z,31.40
2017-05-17T15:22:13.438Z,31.30
2017-05-17T15:24:42.402Z,31.40
2017-05-17T15:27:12.122Z,31.40
2017-05-17T15:29:41.098Z,31.40
2017-05-17T15:32:11.191Z,31.30
2017-05-17T15:34:40.166Z,31.20
2017-05-17T15:37:09.136Z,31.30
2017-05-17T15:39:38.114Z,31.30
2017-05-17T15:42:07.080Z,31.20
2017-05-17T15:44:36.885Z,31.30
2017-05-17T15:47:06.608Z,31.40
2017-05-17T15:49:35.812Z,31.60
2017-05-17T15:52:04.796Z,31.50
2017-05-17T15:54:33.795Z,31.20
2017-05-17T15:57:02.757Z,31.00
2017-05-17T15:59:32.450Z,30.70
2017-05-17T16:02:01.441Z,30.80
2017-05-17T16:04:30.407Z,30.80
2017-05-17T16:06:59.783Z,30.80
2017-05-17T16:09:28.749Z,30.80
2017-05-17T16:11:57.755Z,30.70
2017-05-17T16:14:26.737Z,30.60
2017-05-17T16:16:56.471Z,30.50
2017-05-17T16:19:25.468Z,30.60
2017-05-17T16:21:54.432Z,30.60
2017-05-17T16:24:23.429Z,30.60
2017-05-17T16:26:52.390Z,30.50
2017-05-17T16:29:21.617Z,30.30
2017-05-17T16:31:50.589Z,30.10
2017-05-17T16:34:20.309Z,30.10
2017-05-17T16:36:49.313Z,29.90
2017-05-17T16:39:18.273Z,29.80
2017-05-17T16:41:48.022Z,29.60
2017-05-17T16:44:16.982Z,29.50
2017-05-17T16:46:46.726Z,29.30
2017-05-17T16:49:15.629Z,29.10
2017-05-17T16:51:44.656Z,29.00
2017-05-17T16:54:13.621Z,28.80
2017-05-17T16:56:42.638Z,28.60
2017-05-17T16:59:11.589Z,28.40
2017-05-17T17:01:40.570Z,28.20
2017-05-17T17:04:09.544Z,28.10
2017-05-17T17:06:38.456Z,28.00
2017-05-17T17:09:07.418Z,27.70
2017-05-17T17:11:36.671Z,27.60
2017-05-17T17:14:05.630Z,27.50
2017-05-17T17:16:34.585Z,27.40
2017-05-17T17:19:03.571Z,27.10
2017-05-17T17:21:33.274Z,26.80
2017-05-17T17:24:03.209Z,26.30
2017-05-17T17:26:32.168Z,26.10
2017-05-17T17:29:01.887Z,25.80
2017-05-17T17:31:31.663Z,25.50
2017-05-17T17:34:00.664Z,25.30
2017-05-17T17:36:29.958Z,25.10
2017-05-17T17:38:58.973Z,24.90
2017-05-17T17:41:28.700Z,24.60
2017-05-17T17:43:57.678Z,24.50
2017-05-17T17:46:27.372Z,24.30
2017-05-17T17:48:56.643Z,24.20
2017-05-17T17:51:25.625Z,24.10
2017-05-17T17:53:54.572Z,23.90
2017-05-17T17:56:24.297Z,23.70
2017-05-17T17:58:53.253Z,23.60
2017-05-17T18:01:22.658Z,23.60
2017-05-17T18:03:52.359Z,23.50
2017-05-17T18:06:21.354Z,23.40
2017-05-17T18:08:51.096Z,23.20
2017-05-17T18:11:20.130Z,23.00
2017-05-17T18:13:49.528Z,22.70
2017-05-17T18:16:18.490Z,22.50
2017-05-17T18:18:47.463Z,22.40
2017-05-17T18:21:16.451Z,22.20
2017-05-17T18:23:45.422Z,22.00
2017-05-17T18:26:15.539Z,21.80
2017-05-17T18:28:45.282Z,21.70
2017-05-17T18:31:14.261Z,21.60
2017-05-17T18:33:43.219Z,21.50
2017-05-17T18:36:12.990Z,21.40
2017-05-17T18:38:42.319Z,21.30
2017-05-17T18:41:11.277Z,21.30
2017-05-17T18:43:40.263Z,21.20
2017-05-17T18:46:09.265Z,21.10
2017-05-17T18:48:38.286Z,21.00
2017-05-17T18:51:08.050Z,21.00
2017-05-17T18:53:37.086Z,20.90
2017-05-17T18:56:06.356Z,20.80
2017-05-17T18:58:35.335Z,20.70
2017-05-17T19:01:04.315Z,20.60
2017-05-17T19:03:33.319Z,20.60
2017-05-17T19:06:02.291Z,20.50
2017-05-17T19:08:31.645Z,20.40
2017-05-17T19:11:00.611Z,20.40
2017-05-17T19:13:29.587Z,20.30
2017-05-17T19:15:58.608Z,20.30
2017-05-17T19:18:27.577Z,20.20
2017-05-17T19:20:56.938Z,20.20
2017-05-17T19:23:25.983Z,20.10
2017-05-17T19:25:54.987Z,20.00
2017-05-17T19:28:24.026Z,20.00
2017-05-17T19:30:53.027Z,19.90
2017-05-17T19:33:22.377Z,19.90
2017-05-17T19:35:51.360Z,19.80
2017-05-17T19:38:20.238Z,19.70
2017-05-17T19:40:49.250Z,19.70
2017-05-17T19:43:18.232Z,19.60
2017-05-17T19:45:47.488Z,19.50
2017-05-17T19:48:16.448Z,19.40
2017-05-17T19:50:46.198Z,19.30
2017-05-17T19:53:15.168Z,19.20
2017-05-17T19:55:44.144Z,19.00
2017-05-17T19:58:14.182Z,18.80
2017-05-17T20:00:43.167Z,18.70
2017-05-17T20:03:12.134Z,18.60
2017-05-17T20:05:41.869Z,18.40
2017-05-17T20:08:10.879Z,18.40
2017-05-17T20:10:40.149Z,18.30
2017-05-17T20:13:09.113Z,18.20
2017-05-17T20:15:38.864Z,18.00
2017-05-17T20:18:07.825Z,17.90
2017-05-17T20:20:37.568Z,17.80
2017-05-17T20:23:06.819Z,17.70
2017-05-17T20:25:35.828Z,17.70
2017-05-17T20:28:05.558Z,17.60
2017-05-17T20:30:34.632Z,17.50
2017-05-17T20:33:04.353Z,17.40
2017-05-17T20:35:33.626Z,17.40
2017-05-17T20:38:03.373Z,17.30
2017-05-17T20:40:32.333Z,17.20
2017-05-17T20:43:02.046Z,17.10
2017-05-17T20:45:31.761Z,17.00
2017-05-17T20:48:01.113Z,17.10
2017-05-17T20:50:30.104Z,17.00
2017-05-17T20:52:59.128Z,17.00
2017-05-17T20:55:28.898Z,16.90
2017-05-17T20:57:57.893Z,16.80
2017-05-17T21:00:27.194Z,16.80
2017-05-17T21:02:56.165Z,16.70
2017-05-17T21:05:25.147Z,16.70
2017-05-17T21:07:54.451Z,16.70
2017-05-17T21:10:23.434Z,16.60
2017-05-17T21:12:52.777Z,16.60
2017-05-17T21:15:21.727Z,16.50
2017-05-17T21:17:50.710Z,16.50
2017-05-17T21:20:19.724Z,16.40
2017-05-17T21:22:48.757Z,16.40
2017-05-17T21:25:18.503Z,16.40
2017-05-17T21:27:47.477Z,16.30
2017-05-17T21:30:17.549Z,16.30
2017-05-17T21:32:46.565Z,16.30
2017-05-17T21:35:16.271Z,16.20
2017-05-17T21:37:46.006Z,16.10
2017-05-17T21:40:14.971Z,16.10
2017-05-17T21:42:44.253Z,16.10
2017-05-17T21:45:13.222Z,16.10
2017-05-17T21:47:42.178Z,16.10
2017-05-17T21:50:11.177Z,16.10
2017-05-17T21:52:40.128Z,16.00
2017-05-17T21:55:09.417Z,16.00
2017-05-17T21:57:38.365Z,15.90
2017-05-17T22:00:07.390Z,15.90
2017-05-17T22:02:36.381Z,15.90
2017-05-17T22:05:05.369Z,15.80
2017-05-17T22:07:34.339Z,15.80
2017-05-17T22:10:03.348Z,15.70
2017-05-17T22:12:32.406Z,15.70
2017-05-17T22:15:01.752Z,15.60
2017-05-17T22:17:30.757Z,15.60
2017-05-17T22:19:59.840Z,15.50
2017-05-17T22:22:28.830Z,15.50
2017-05-17T22:24:57.787Z,15.50
2017-05-17T22:27:27.111Z,15.40
2017-05-17T22:29:56.073Z,15.40
2017-05-17T22:32:25.051Z,15.30
2017-05-17T22:34:54.065Z,15.30
2017-05-17T22:37:23.057Z,15.20
2017-05-17T22:39:52.360Z,15.20
2017-05-17T22:42:21.352Z,15.10
2017-05-17T22:44:50.318Z,15.10
2017-05-17T22:47:19.443Z,15.00
2017-05-17T22:49:48.429Z,15.00
2017-05-17T22:52:17.836Z,14.90
2017-05-17T22:54:46.796Z,14.90
2017-05-17T22:57:15.751Z,14.80
2017-05-17T22:59:45.486Z,14.80
2017-05-17T23:02:14.449Z,14.70
2017-05-17T23:04:44.535Z,14.70
2017-05-17T23:07:13.496Z,14.70
2017-05-17T23:09:42.538Z,14.70
2017-05-17T23:12:11.528Z,14.60
2017-05-17T23:14:40.484Z,14.60
2017-05-17T23:17:09.876Z,14.60
2017-05-17T23:19:38.829Z,14.50
2017-05-17T23:22:07.800Z,14.50
2017-05-17T23:24:36.833Z,14.40
2017-05-17T23:27:05.837Z,14.40
2017-05-17T23:29:35.165Z,14.40
2017-05-17T23:32:04.145Z,14.30
2017-05-17T23:34:33.119Z,14.30
2017-05-17T23:37:02.103Z,14.20
2017-05-17T23:39:31.073Z,14.20
2017-05-17T23:42:00.420Z,14.10
2017-05-17T23:44:29.431Z,14.10
2017-05-17T23:46:58.399Z,14.10
2017-05-17T23:49:27.386Z,14.00
2017-05-17T23:51:56.367Z,14.00
2017-05-17T23:54:25.371Z,14.00
2017-05-17T23:56:54.368Z,13.90
2017-05-17T23:59:23.670Z,13.90
